Time;durP1;ratioP1;P1;durP2;ratioP2;P2;SDS_P1;SDS_P2;PMS_P1;PMS_P2;Temp;Humidity;BMP_temperature;BMP_pressure;BME280_temperature;BME280_humidity;BME280_pressure;Samples;Min_cycle;Max_cycle;Signal;HPM_P1;HPM_P2
2021/10/29 00:02:16;;;;;;;1999.90;999.90;;;0.60;99.90;;;;;;5114292;28;20051;-79
2021/10/29 00:04:41;;;;;;;1999.90;999.90;;;0.50;99.90;;;;;;5114397;28;20467;-80
2021/10/29 00:07:08;;;;;;;1999.90;999.90;;;0.50;99.90;;;;;;5114385;28;20062;-79
2021/10/29 00:09:35;;;;;;;1999.90;999.90;;;0.40;99.90;;;;;;5114183;28;20024;-78
2021/10/29 00:12:01;;;;;;;1999.90;999.90;;;0.50;99.90;;;;;;5114371;28;20028;-78
2021/10/29 00:14:31;;;;;;;1999.90;999.90;;;0.40;99.90;;;;;;5113881;28;20027;-79
2021/10/29 00:16:57;;;;;;;1999.90;999.90;;;0.40;99.90;;;;;;5115638;28;20100;-80
2021/10/29 00:19:23;;;;;;;1999.90;999.90;;;0.40;99.90;;;;;;5113733;28;20103;-78
2021/10/29 00:21:48;;;;;;;1999.90;999.90;;;0.60;99.90;;;;;;5114255;28;20106;-79
2021/10/29 00:24:14;;;;;;;1999.90;999.90;;;0.60;99.90;;;;;;5115448;28;20066;-79
2021/10/29 00:26:40;;;;;;;1999.90;999.90;;;0.40;99.90;;;;;;5113847;28;20043;-79
2021/10/29 00:29:05;;;;;;;1999.90;999.90;;;0.50;99.90;;;;;;5113269;28;20077;-78
2021/10/29 00:31:31;;;;;;;1999.90;999.90;;;0.60;99.90;;;;;;5113754;28;20027;-78
2021/10/29 00:33:57;;;;;;;1999.90;999.90;;;0.60;99.90;;;;;;5113799;28;20026;-78
2021/10/29 00:36:22;;;;;;;1999.90;999.90;;;0.50;99.90;;;;;;5113959;28;20062;-79
2021/10/29 00:38:48;;;;;;;1999.90;999.90;;;0.50;99.90;;;;;;5114112;28;20024;-80
2021/10/29 00:41:14;;;;;;;1999.90;999.90;;;0.50;99.90;;;;;;5113754;28;20073;-80
2021/10/29 00:43:39;;;;;;;1999.90;999.90;;;0.40;99.90;;;;;;5113587;28;20074;-79
2021/10/29 00:46:05;;;;;;;1999.90;999.90;;;0.40;99.90;;;;;;5113364;28;20155;-79
2021/10/29 00:48:31;;;;;;;1999.90;999.90;;;0.40;99.90;;;;;;5113069;28;20052;-79
2021/10/29 00:50:56;;;;;;;1999.90;999.90;;;0.30;99.90;;;;;;5113436;28;20019;-79
2021/10/29 00:53:24;;;;;;;1999.90;999.90;;;0.40;99.90;;;;;;5114000;28;20020;-79
2021/10/29 00:55:50;;;;;;;1999.90;999.90;;;0.30;99.90;;;;;;5113446;28;20072;-78
2021/10/29 00:58:16;;;;;;;1999.90;999.90;;;0.30;99.90;;;;;;5113240;28;20031;-79
2021/10/29 01:00:42;;;;;;;1999.90;999.90;;;0.40;99.90;;;;;;5113234;28;20375;-79
2021/10/29 01:03:08;;;;;;;1999.90;999.90;;;0.40;99.90;;;;;;5113277;28;20032;-79
2021/10/29 01:05:33;;;;;;;1999.90;999.90;;;0.40;99.90;;;;;;5112857;28;20495;-79
2021/10/29 01:07:59;;;;;;;1999.90;999.90;;;0.50;99.90;;;;;;5112740;28;20028;-79
2021/10/29 01:10:30;;;;;;;1999.90;999.90;;;0.50;99.90;;;;;;5113157;28;20024;-77
2021/10/29 01:12:56;;;;;;;1999.90;999.90;;;0.40;99.90;;;;;;5113094;28;20020;-78
2021/10/29 01:15:21;;;;;;;1999.90;999.90;;;0.50;99.90;;;;;;5112735;28;20026;-78
2021/10/29 01:17:47;;;;;;;1999.90;999.90;;;0.50;99.90;;;;;;5112721;28;20076;-79
2021/10/29 01:20:21;;;;;;;1999.90;999.90;;;0.30;99.90;;;;;;5112838;28;20382;-78
2021/10/29 01:22:47;;;;;;;1999.90;999.90;;;0.30;99.90;;;;;;5114234;28;20020;-79
2021/10/29 01:25:13;;;;;;;1999.90;999.90;;;0.30;99.90;;;;;;5112287;28;20031;-83
2021/10/29 01:27:39;;;;;;;1999.90;999.90;;;0.20;99.90;;;;;;5113004;28;20035;-79
2021/10/29 01:30:06;;;;;;;1999.90;999.90;;;0.30;99.90;;;;;;5112752;28;20427;-78
2021/10/29 01:32:33;;;;;;;1999.90;999.90;;;0.30;99.90;;;;;;5112647;28;20080;-79
2021/10/29 01:34:59;;;;;;;1999.90;999.90;;;0.20;99.90;;;;;;5112776;28;20076;-79
2021/10/29 01:37:25;;;;;;;1999.90;999.90;;;0.20;99.90;;;;;;5112698;28;20398;-79
2021/10/29 01:39:51;;;;;;;1999.90;999.90;;;0.30;99.90;;;;;;5113932;28;20028;-78
2021/10/29 01:42:17;;;;;;;1999.90;999.90;;;0.30;99.90;;;;;;5112056;28;20024;-78
2021/10/29 01:44:44;;;;;;;1999.90;999.90;;;0.30;99.90;;;;;;5112700;28;20051;-79
2021/10/29 01:47:10;;;;;;;1999.90;999.90;;;0.20;99.90;;;;;;5112455;28;20054;-79
2021/10/29 01:49:38;;;;;;;1999.90;999.90;;;0.20;99.90;;;;;;5112025;28;20044;-79
2021/10/29 01:52:04;;;;;;;1999.90;999.90;;;0.20;99.90;;;;;;5113441;28;20401;-79
2021/10/29 01:54:29;;;;;;;1999.90;999.90;;;0.20;99.90;;;;;;5114871;28;20094;-84
2021/10/29 01:56:56;;;;;;;1999.90;999.90;;;0.10;99.90;;;;;;5114541;28;20107;-83
2021/10/29 01:59:22;;;;;;;1999.90;999.90;;;0.10;99.90;;;;;;5113121;28;20120;-83
2021/10/29 02:01:47;;;;;;;1999.90;999.90;;;0.10;99.90;;;;;;5113589;28;20066;-79
2021/10/29 02:04:13;;;;;;;1999.90;999.90;;;0.00;99.90;;;;;;5112343;28;20122;-79
2021/10/29 02:06:38;;;;;;;1999.90;999.90;;;0.00;99.90;;;;;;5112017;28;20118;-81
2021/10/29 02:09:04;;;;;;;1999.90;999.90;;;0.10;99.90;;;;;;5112261;28;20024;-78
2021/10/29 02:11:30;;;;;;;1999.90;999.90;;;0.10;99.90;;;;;;5112050;28;20031;-78
2021/10/29 02:13:56;;;;;;;1999.90;999.90;;;0.00;99.90;;;;;;5112076;28;20030;-78
2021/10/29 02:16:22;;;;;;;1999.90;999.90;;;-0.10;99.90;;;;;;5112069;28;20410;-78
2021/10/29 02:18:47;;;;;;;1999.90;999.90;;;-0.10;99.90;;;;;;5111993;28;20157;-78
2021/10/29 02:21:13;;;;;;;1999.90;999.90;;;-0.10;99.90;;;;;;5113347;28;20471;-79
2021/10/29 02:23:39;;;;;;;1999.90;999.90;;;-0.10;99.90;;;;;;5111852;28;20031;-79
2021/10/29 02:26:04;;;;;;;1999.90;999.90;;;-0.10;99.90;;;;;;5111828;28;20433;-78
2021/10/29 02:28:30;;;;;;;1999.90;999.90;;;-0.10;99.90;;;;;;5113156;28;20021;-79
2021/10/29 02:30:56;;;;;;;1999.90;999.90;;;-0.20;99.90;;;;;;5112202;28;20030;-79
2021/10/29 02:33:21;;;;;;;1999.90;999.90;;;-0.10;99.90;;;;;;5112113;28;20085;-78
2021/10/29 02:35:48;;;;;;;1999.90;999.90;;;-0.10;99.90;;;;;;5112954;28;20351;-79
2021/10/29 02:38:13;;;;;;;1999.90;999.90;;;-0.10;99.90;;;;;;5112092;28;20050;-79
2021/10/29 02:40:39;;;;;;;1999.90;999.90;;;-0.10;99.90;;;;;;5111829;28;20462;-79
2021/10/29 02:43:05;;;;;;;1999.90;999.90;;;-0.10;99.90;;;;;;5111854;28;20119;-78
2021/10/29 02:45:31;;;;;;;1999.90;999.90;;;-0.10;99.90;;;;;;5111550;28;20388;-81
2021/10/29 02:47:57;;;;;;;1999.90;999.90;;;-0.10;99.90;;;;;;5111415;28;20024;-79
2021/10/29 02:50:23;;;;;;;1999.90;999.90;;;-0.10;99.90;;;;;;5112033;28;20044;-79
2021/10/29 02:52:50;;;;;;;1999.90;999.90;;;0.00;99.90;;;;;;5112865;28;20416;-78
2021/10/29 02:55:16;;;;;;;1999.90;999.90;;;0.00;99.90;;;;;;5115924;28;20474;-78
2021/10/29 02:57:42;;;;;;;1999.90;999.90;;;0.00;99.90;;;;;;5115583;28;20091;-78
2021/10/29 03:00:11;;;;;;;1999.90;999.90;;;-0.10;99.90;;;;;;5116996;28;20027;-79
2021/10/29 03:02:38;;;;;;;1999.90;999.90;;;-0.10;99.90;;;;;;5116028;28;20076;-79
2021/10/29 03:05:05;;;;;;;1999.90;999.90;;;-0.20;99.90;;;;;;5115519;28;20031;-78
2021/10/29 03:07:31;;;;;;;1999.90;999.90;;;-0.10;99.90;;;;;;5115783;28;20028;-79
2021/10/29 03:09:57;;;;;;;1999.90;999.90;;;-0.10;99.90;;;;;;5115775;28;20035;-78
2021/10/29 03:12:23;;;;;;;1999.90;999.90;;;-0.20;99.90;;;;;;5115104;28;20035;-79
2021/10/29 03:14:49;;;;;;;1999.90;999.90;;;-0.10;99.90;;;;;;5115513;28;20024;-78
2021/10/29 03:17:15;;;;;;;1999.90;999.90;;;0.00;99.90;;;;;;5115216;28;20031;-78
2021/10/29 03:19:41;;;;;;;1999.90;999.90;;;0.00;99.90;;;;;;5116586;28;20019;-79
2021/10/29 03:22:07;;;;;;;1999.90;999.90;;;-0.20;99.90;;;;;;5115263;28;20510;-78
2021/10/29 03:24:33;;;;;;;1999.90;999.90;;;-0.10;99.90;;;;;;5115169;28;20027;-79
2021/10/29 03:26:59;;;;;;;1999.90;999.90;;;-0.20;99.90;;;;;;5115248;28;20480;-83
2021/10/29 03:29:25;;;;;;;1999.90;999.90;;;-0.20;99.90;;;;;;5114880;28;20027;-78
2021/10/29 03:31:51;;;;;;;1999.90;999.90;;;-0.30;99.90;;;;;;5098079;28;20031;-79
2021/10/29 03:34:17;;;;;;;1999.90;999.90;;;-0.30;99.90;;;;;;5114904;28;20417;-78
2021/10/29 03:36:44;;;;;;;1999.90;999.90;;;-0.30;99.90;;;;;;5115302;28;20042;-79
2021/10/29 03:39:13;;;;;;;1999.90;999.90;;;-0.30;99.90;;;;;;5114897;28;20032;-78
2021/10/29 03:41:50;;;;;;;1999.90;999.90;;;-0.30;99.90;;;;;;5114782;28;20015;-79
2021/10/29 03:46:46;;;;;;;1999.90;999.90;;;-0.30;99.90;;;;;;5115807;28;20145;-79
2021/10/29 03:49:22;;;;;;;1999.90;999.90;;;-0.20;99.90;;;;;;5114571;28;20101;-79
2021/10/29 03:51:56;;;;;;;1999.90;999.90;;;-0.30;99.90;;;;;;5114593;28;20023;-81
2021/10/29 03:54:29;;;;;;;1999.90;999.90;;;-0.30;99.90;;;;;;5114470;28;20027;-78
2021/10/29 03:59:30;;;;;;;1999.90;999.90;;;-0.30;99.90;;;;;;5115571;28;20111;-79
2021/10/29 04:01:56;;;;;;;1999.90;999.90;;;-0.30;99.90;;;;;;5114572;28;20417;-79
2021/10/29 04:04:22;;;;;;;1999.90;999.90;;;-0.20;99.90;;;;;;5113135;28;20032;-79
2021/10/29 04:06:48;;;;;;;1999.90;999.90;;;-0.20;99.90;;;;;;5114240;28;20088;-80
2021/10/29 04:09:14;;;;;;;1999.90;999.90;;;-0.20;99.90;;;;;;5114232;28;20023;-79
2021/10/29 04:11:41;;;;;;;1999.90;999.90;;;-0.30;99.90;;;;;;5114283;28;20055;-79
2021/10/29 04:14:10;;;;;;;1999.90;999.90;;;-0.30;99.90;;;;;;5114288;28;20024;-79
2021/10/29 04:16:37;;;;;;;1999.90;999.90;;;-0.20;99.90;;;;;;5114176;28;20024;-79
2021/10/29 04:19:09;;;;;;;1999.90;999.90;;;-0.20;99.90;;;;;;5113880;28;20034;-78
2021/10/29 04:21:38;;;;;;;1999.90;999.90;;;-0.20;99.90;;;;;;5115099;28;20032;-79
2021/10/29 04:24:05;;;;;;;1999.90;999.90;;;-0.30;99.90;;;;;;5113989;28;20023;-79
2021/10/29 04:26:31;;;;;;;1999.90;999.90;;;-0.20;99.90;;;;;;5113785;28;20061;-81
2021/10/29 04:28:57;;;;;;;1999.90;999.90;;;-0.20;99.90;;;;;;5113904;28;20027;-78
2021/10/29 04:31:30;;;;;;;1999.90;999.90;;;-0.20;99.90;;;;;;5113749;28;20037;-79
2021/10/29 04:33:57;;;;;;;1999.90;999.90;;;-0.30;99.90;;;;;;5114010;28;20474;-79
2021/10/29 04:36:23;;;;;;;1999.90;999.90;;;-0.30;99.90;;;;;;5113602;28;20035;-79
2021/10/29 04:38:50;;;;;;;1999.90;999.90;;;-0.20;99.90;;;;;;5113597;28;20120;-79
2021/10/29 04:41:16;;;;;;;1999.90;999.90;;;-0.30;99.90;;;;;;5113803;28;20428;-79
2021/10/29 04:43:42;;;;;;;1999.90;999.90;;;-0.30;99.90;;;;;;5114835;28;20026;-79
2021/10/29 04:46:08;;;;;;;1999.90;999.90;;;-0.40;99.90;;;;;;5113290;28;20063;-78
2021/10/29 04:48:35;;;;;;;1999.90;999.90;;;-0.30;99.90;;;;;;5113508;28;20052;-79
2021/10/29 04:51:01;;;;;;;1999.90;999.90;;;-0.30;99.90;;;;;;5113457;28;20027;-80
2021/10/29 04:53:27;;;;;;;1999.90;999.90;;;-0.40;99.90;;;;;;5113092;28;20527;-78
2021/10/29 04:55:52;;;;;;;1999.90;999.90;;;-0.20;99.90;;;;;;5113466;28;20026;-79
2021/10/29 04:58:18;;;;;;;1999.90;999.90;;;-0.20;99.90;;;;;;5113612;28;20058;-78
2021/10/29 05:00:44;;;;;;;1999.90;999.90;;;-0.30;99.90;;;;;;5114872;28;20034;-79
2021/10/29 05:03:10;;;;;;;1999.90;999.90;;;-0.40;99.90;;;;;;5114843;28;20089;-79
2021/10/29 05:05:36;;;;;;;1999.90;999.90;;;-0.40;99.90;;;;;;5114336;28;20035;-79
2021/10/29 05:08:03;;;;;;;1999.90;999.90;;;-0.40;99.90;;;;;;5113230;28;20366;-80
2021/10/29 05:10:29;;;;;;;1999.90;999.90;;;-0.40;99.90;;;;;;5113335;28;20020;-79
2021/10/29 05:12:55;;;;;;;1999.90;999.90;;;-0.50;99.90;;;;;;5112979;28;20548;-80
2021/10/29 05:15:21;;;;;;;1999.90;999.90;;;-0.50;99.90;;;;;;5112851;28;20055;-79
2021/10/29 05:17:47;;;;;;;1999.90;999.90;;;-0.40;99.90;;;;;;5113274;28;20498;-79
2021/10/29 05:20:15;;;;;;;1999.90;999.90;;;-0.40;99.90;;;;;;5114533;28;20031;-80
2021/10/29 05:22:41;;;;;;;1999.90;999.90;;;-0.40;99.90;;;;;;5112869;28;20027;-80
2021/10/29 05:25:08;;;;;;;1999.90;999.90;;;-0.40;99.90;;;;;;5112883;28;20019;-79
2021/10/29 05:27:34;;;;;;;1999.90;999.90;;;-0.40;99.90;;;;;;5112628;28;20043;-78
2021/10/29 05:30:00;;;;;;;1999.90;999.90;;;-0.40;99.90;;;;;;5112892;28;20020;-80
2021/10/29 05:32:26;;;;;;;1999.90;999.90;;;-0.40;99.90;;;;;;5112889;28;20088;-79
2021/10/29 05:34:52;;;;;;;1999.90;999.90;;;-0.40;99.90;;;;;;5112880;28;20352;-79
2021/10/29 05:37:17;;;;;;;1999.90;999.90;;;-0.40;99.90;;;;;;5114316;28;20045;-79
2021/10/29 05:39:44;;;;;;;1999.90;999.90;;;-0.40;99.90;;;;;;5112265;28;20031;-79
2021/10/29 05:42:10;;;;;;;1999.90;999.90;;;-0.40;99.90;;;;;;5113670;28;20374;-80
2021/10/29 05:44:36;;;;;;;1999.90;999.90;;;-0.40;99.90;;;;;;5112478;28;20034;-79
2021/10/29 05:47:01;;;;;;;1999.90;999.90;;;0.60;99.90;;;;;;5117426;28;20130;-81
2021/10/29 05:49:28;;;;;;;1999.90;999.90;;;0.50;99.90;;;;;;5112373;28;20056;-82
2021/10/29 05:51:55;;;;;;;1999.90;999.90;;;0.20;99.90;;;;;;5113808;28;20023;-80
2021/10/29 05:57:04;;;;;;;1999.90;999.90;;;0.00;99.90;;;;;;5113658;27;20031;-79
2021/10/29 05:59:34;;;;;;;1999.90;999.90;;;-0.10;99.90;;;;;;5112830;28;20027;-79
2021/10/29 06:01:59;;;;;;;1999.90;999.90;;;-0.10;99.90;;;;;;5113419;28;20076;-79
2021/10/29 06:04:26;;;;;;;1999.90;999.90;;;-0.30;99.90;;;;;;5112986;28;20107;-79
2021/10/29 06:06:52;;;;;;;1999.90;999.90;;;-0.30;99.90;;;;;;5112613;28;20039;-79
2021/10/29 06:09:18;;;;;;;1999.90;999.90;;;-0.40;99.90;;;;;;5112503;28;20024;-79
2021/10/29 06:11:44;;;;;;;1999.90;999.90;;;-0.40;99.90;;;;;;5113307;28;20493;-79
2021/10/29 06:14:10;;;;;;;1999.90;999.90;;;-0.40;99.90;;;;;;5112470;28;20055;-79
2021/10/29 06:16:36;;;;;;;1999.90;999.90;;;-0.40;99.90;;;;;;5112057;28;20433;-79
2021/10/29 06:19:03;;;;;;;1999.90;999.90;;;-0.20;99.90;;;;;;5112337;28;20028;-80
2021/10/29 06:21:34;;;;;;;1999.90;999.90;;;-0.30;99.90;;;;;;5112623;28;20080;-79
2021/10/29 06:24:08;;;;;;;1999.90;999.90;;;-0.30;99.90;;;;;;5112051;28;20020;-79
2021/10/29 06:29:18;;;;;;;1999.90;999.90;;;-0.10;99.90;;;;;;5117357;28;20081;-82
2021/10/29 06:31:44;;;;;;;1999.90;999.90;;;-0.10;99.90;;;;;;5116400;28;20031;-79
2021/10/29 06:34:11;;;;;;;1999.90;999.90;;;-0.20;99.90;;;;;;5117719;28;20022;-79
2021/10/29 06:36:38;;;;;;;1999.90;999.90;;;-0.10;99.90;;;;;;5116719;28;20126;-80
2021/10/29 06:39:04;;;;;;;1999.90;999.90;;;-0.10;99.90;;;;;;5116478;28;20062;-79
2021/10/29 06:41:30;;;;;;;1999.90;999.90;;;-0.10;99.90;;;;;;5116160;28;20110;-79
2021/10/29 06:46:45;;;;;;;1999.90;999.90;;;-0.10;99.90;;;;;;5116917;27;20225;-80
2021/10/29 06:49:21;;;;;;;1999.90;999.90;;;-0.10;99.90;;;;;;5115219;28;20071;-78
2021/10/29 07:00:09;;;;;;;1999.90;999.90;;;0.20;99.90;;;;;;5116678;28;20031;-79
2021/10/29 07:40:15;;;;;;;1999.90;999.90;;;1.20;99.90;;;;;;5115759;28;20057;-80
2021/10/29 07:43:04;;;;;;;1999.90;999.90;;;1.20;99.90;;;;;;5114439;28;20020;-77
2021/10/29 07:45:30;;;;;;;1999.90;999.90;;;1.30;99.90;;;;;;5116374;28;20467;-81
2021/10/29 07:47:57;;;;;;;1999.90;999.90;;;4.70;99.90;;;;;;5117116;28;20028;-85
2021/10/29 07:50:24;;;;;;;1999.90;999.90;;;4.50;99.90;;;;;;5116020;28;20064;-85
2021/10/29 07:52:52;;;;;;;1999.90;999.90;;;3.90;99.90;;;;;;5117086;28;20030;-85
2021/10/29 07:55:20;;;;;;;1999.90;999.90;;;3.50;99.90;;;;;;5117013;28;20028;-86
2021/10/29 07:57:47;;;;;;;1999.90;999.90;;;3.20;99.90;;;;;;5117730;28;20356;-85
2021/10/29 08:00:15;;;;;;;1999.90;999.90;;;3.00;99.90;;;;;;5117841;28;20069;-86
2021/10/29 08:02:41;;;;;;;1999.90;999.90;;;2.90;99.90;;;;;;5117930;28;20035;-84
2021/10/29 08:05:07;;;;;;;1999.90;999.90;;;2.90;99.90;;;;;;5117126;28;20027;-84
2021/10/29 08:07:33;;;;;;;1999.90;999.90;;;2.90;99.90;;;;;;5116950;28;20582;-86
2021/10/29 08:10:02;;;;;;;1999.90;999.90;;;3.00;99.90;;;;;;5116573;28;20027;-87
2021/10/29 08:12:28;;;;;;;1999.90;999.90;;;3.10;99.90;;;;;;5115601;28;20065;-83
2021/10/29 08:14:54;;;;;;;1999.90;999.90;;;3.20;99.90;;;;;;5116231;28;20073;-84
2021/10/29 08:17:20;;;;;;;1999.90;999.90;;;3.40;99.90;;;;;;5117435;28;20023;-85
2021/10/29 08:19:47;;;;;;;1999.90;999.90;;;3.50;99.90;;;;;;5115844;28;20527;-82
2021/10/29 08:22:13;;;;;;;1999.90;999.90;;;3.70;99.90;;;;;;5115903;28;20117;-86
2021/10/29 08:24:40;;;;;;;1999.90;999.90;;;3.90;99.90;;;;;;5116301;28;20035;-82
2021/10/29 08:27:08;;;;;;;1999.90;999.90;;;4.00;99.90;;;;;;5116885;28;20023;-85
2021/10/29 08:29:34;;;;;;;1999.90;999.90;;;4.20;99.90;;;;;;5116997;28;20026;-86
2021/10/29 08:32:00;;;;;;;1999.90;999.90;;;4.30;99.90;;;;;;5116326;28;20030;-86
2021/10/29 08:34:27;;;;;;;1999.90;999.90;;;4.40;99.90;;;;;;5115803;28;20047;-85
2021/10/29 08:36:57;;;;;;;1999.90;999.90;;;4.50;99.90;;;;;;5116082;28;20114;-85
2021/10/29 08:39:24;;;;;;;1999.90;999.90;;;4.60;99.90;;;;;;5115517;28;20020;-85
2021/10/29 08:41:52;;;;;;;1999.90;999.90;;;4.80;99.90;;;;;;5115590;28;20024;-87
2021/10/29 08:44:18;;;;;;;1999.90;999.90;;;5.00;99.90;;;;;;5115759;28;20024;-85
2021/10/29 08:46:44;;;;;;;1999.90;999.90;;;5.20;99.90;;;;;;5116537;28;20035;-85
2021/10/29 08:49:10;;;;;;;1999.90;999.90;;;;;;;;;;5116002;28;20657;-86
2021/10/29 08:51:37;;;;;;;1999.90;999.90;;;;;;;;;;5114943;28;20458;-84
2021/10/29 08:54:04;;;;;;;1999.90;999.90;;;;;;;;;;5115640;28;20047;-85
2021/10/29 08:56:30;;;;;;;1999.90;999.90;;;;;;;;;;5116165;28;20062;-86
2021/10/29 08:59:08;;;;;;;1999.90;999.90;;;;;;;;;;5115095;28;20027;-85
2021/10/29 09:01:58;;;;;;;1999.90;999.90;;;;;;;;;;5116343;28;20026;-84
2021/10/29 09:04:38;;;;;;;1999.90;999.90;;;;;;;;;;5115362;28;20028;-86
2021/10/29 09:34:06;;;;;;;1999.90;999.90;;;7.60;99.90;;;;;;5115187;28;20020;-86
2021/10/29 09:36:41;;;;;;;1999.90;999.90;;;7.70;99.90;;;;;;5113863;28;20042;-84
2021/10/29 09:39:14;;;;;;;1999.90;999.90;;;7.80;99.90;;;;;;5114331;28;20042;-87
2021/10/29 09:41:41;;;;;;;1999.90;999.90;;;8.00;99.90;;;;;;5113206;28;20386;-83
2021/10/29 09:44:19;;;;;;;1999.90;999.90;;;8.10;99.90;;;;;;5114126;28;20030;-83
2021/10/29 09:46:57;;;;;;;1999.90;999.90;;;8.20;99.90;;;;;;5113891;28;20131;-83
2021/10/29 09:57:27;;;;;;;1999.90;999.90;;;8.70;99.90;;;;;;5115682;28;20031;-87
2021/10/29 09:59:57;;;;;;;1999.90;999.90;;;8.90;99.90;;;;;;5113911;28;20031;-87
2021/10/29 10:02:25;;;;;;;1999.90;999.90;;;9.00;99.90;;;;;;5114172;28;20115;-84
2021/10/29 10:04:52;;;;;;;1999.90;999.90;;;9.10;99.90;;;;;;5114088;28;20386;-87
2021/10/29 10:07:26;;;;;;;1999.90;999.90;;;9.20;99.90;;;;;;5114338;28;20031;-86
2021/10/29 10:09:57;;;;;;;1999.90;999.90;;;9.30;99.90;;;;;;5114263;28;20031;-85
2021/10/29 10:12:26;;;;;;;1999.90;999.90;;;9.50;99.90;;;;;;5114206;28;20039;-85
2021/10/29 10:14:58;;;;;;;1999.90;999.90;;;9.60;99.90;;;;;;5113772;28;20026;-87
2021/10/29 10:17:25;;;;;;;1999.90;999.90;;;9.70;99.90;;;;;;5114302;28;20023;-86
2021/10/29 10:19:56;;;;;;;1999.90;999.90;;;9.90;99.90;;;;;;5113686;28;20542;-84
2021/10/29 10:22:25;;;;;;;1999.90;999.90;;;10.00;99.90;;;;;;5114692;28;20015;-86
2021/10/29 10:25:08;;;;;;;1999.90;999.90;;;10.10;99.90;;;;;;5113660;28;20055;-85
2021/10/29 10:28:04;;;;;;;1999.90;999.90;;;10.10;99.90;;;;;;5113922;28;20073;-86
2021/10/29 10:46:49;;;;;;;1999.90;999.90;;;10.90;99.90;;;;;;5114213;28;20177;-86
2021/10/29 10:49:19;;;;;;;1999.90;999.90;;;11.00;99.90;;;;;;5112916;28;20551;-85
2021/10/29 10:51:58;;;;;;;1999.90;999.90;;;11.10;99.90;;;;;;5113257;28;20028;-83
2021/10/29 10:54:33;;;;;;;1999.90;999.90;;;11.10;99.90;;;;;;5113361;28;20103;-83
2021/10/29 11:00:03;;;;;;;1999.90;999.90;;;11.20;99.00;;;;;;5113899;28;20069;-85
2021/10/29 11:02:42;;;;;;;1999.90;999.90;;;11.30;98.30;;;;;;5113315;28;20069;-87
2021/10/29 11:10:23;;;;;;;1999.90;999.90;;;11.50;97.60;;;;;;5113778;28;20073;-85
2021/10/29 11:12:49;;;;;;;1999.90;999.90;;;11.60;96.80;;;;;;5108560;28;20066;-84
2021/10/29 11:15:24;;;;;;;1999.90;999.90;;;12.20;97.20;;;;;;5114539;28;20084;-79
2021/10/29 11:17:58;;;;;;;1999.90;999.90;;;12.30;94.80;;;;;;5114566;28;20127;-80
2021/10/29 11:20:41;;;;;;;1999.90;999.90;;;12.30;94.30;;;;;;5114672;28;20364;-82
2021/10/29 11:23:22;;;;;;;1999.90;999.90;;;12.20;93.50;;;;;;5114665;28;20471;-80
2021/10/29 11:25:51;;;;;;;1999.90;999.90;;;12.10;93.50;;;;;;5114289;28;20038;-78
2021/10/29 11:28:25;;;;;;;1999.90;999.90;;;12.20;93.50;;;;;;5115673;28;20031;-79
2021/10/29 11:30:53;;;;;;;1999.90;999.90;;;12.20;93.40;;;;;;5114473;28;20027;-80
2021/10/29 11:33:20;;;;;;;1999.90;999.90;;;12.20;93.30;;;;;;5114441;28;20039;-78
2021/10/29 11:36:08;;;;;;;1999.90;999.90;;;12.30;92.90;;;;;;5115610;28;20026;-79
2021/10/29 11:38:36;;;;;;;1999.90;999.90;;;12.30;92.80;;;;;;5114412;28;20107;-79
2021/10/29 11:41:05;;;;;;;1999.90;999.90;;;12.30;92.30;;;;;;5114164;28;20035;-80
2021/10/29 11:43:33;;;;;;;1999.90;999.90;;;12.30;92.30;;;;;;5114050;28;20033;-80
2021/10/29 11:46:04;;;;;;;1999.90;999.90;;;12.30;92.30;;;;;;5113940;28;20032;-79
2021/10/29 11:48:30;;;;;;;1999.90;999.90;;;12.40;92.50;;;;;;5113551;28;20043;-80
2021/10/29 11:51:11;;;;;;;1999.90;999.90;;;12.40;92.30;;;;;;5114166;28;20023;-79
2021/10/29 11:53:46;;;;;;;1999.90;999.90;;;12.40;92.20;;;;;;5114125;28;20050;-80
2021/10/29 12:07:24;;;;;;;1999.90;999.90;;;12.50;92.60;;;;;;5114967;28;20084;-80
2021/10/29 12:10:02;;;;;;;1999.90;999.90;;;12.50;92.30;;;;;;5113690;28;20073;-80
2021/10/29 12:12:29;;;;;;;1999.90;999.90;;;12.60;92.40;;;;;;5113582;28;20031;-80
2021/10/29 12:15:02;;;;;;;1999.90;999.90;;;12.60;92.10;;;;;;5113423;28;20019;-74
2021/10/29 12:17:34;;;;;;;1999.90;999.90;;;12.70;91.80;;;;;;5114637;28;20102;-77
2021/10/29 12:20:04;;;;;;;1999.90;999.90;;;12.80;92.00;;;;;;5114221;28;20016;-76
2021/10/29 12:22:37;;;;;;;1999.90;999.90;;;12.90;92.00;;;;;;5113569;28;20028;-77
2021/10/29 12:27:40;;;;;;;1999.90;999.90;;;13.00;91.20;;;;;;5113939;28;20055;-78
2021/10/29 12:30:16;;;;;;;1999.90;999.90;;;13.00;91.00;;;;;;5114258;28;20027;-77
2021/10/29 12:33:02;;;;;;;1999.90;999.90;;;13.00;91.50;;;;;;5114216;28;20019;-76
2021/10/29 12:39:21;;;;;;;1999.90;999.90;;;13.00;91.40;;;;;;5114464;28;20084;-74
2021/10/29 12:53:24;;;;;;;1999.90;999.90;;;12.80;91.30;;;;;;5114847;28;20560;-81
2021/10/29 13:01:58;;;;;;;1999.90;999.90;;;12.80;91.10;;;;;;5114929;28;20119;-81
2021/10/29 13:04:43;;;;;;;1999.90;999.90;;;12.80;91.50;;;;;;5114695;28;20375;-77
2021/10/29 13:07:09;;;;;;;1999.90;999.90;;;12.90;91.90;;;;;;5113690;28;20098;-77
2021/10/29 13:09:38;;;;;;;1999.90;999.90;;;12.80;91.30;;;;;;5114395;28;20019;-79
2021/10/29 13:12:28;;;;;;;1999.90;999.90;;;12.80;91.10;;;;;;5113785;28;20024;-78
2021/10/29 13:15:01;;;;;;;1999.90;999.90;;;12.80;91.20;;;;;;5113623;28;20020;-78
2021/10/29 13:17:32;;;;;;;1999.90;999.90;;;12.80;91.40;;;;;;5113858;28;20024;-77
2021/10/29 14:34:42;;;;;;;1999.90;999.90;;;11.60;92.90;;;;;;5112942;28;20020;-79
2021/10/29 14:36:50;;;;;;;1999.90;999.90;;;11.50;93.10;;;;;;5094635;28;20034;-81
2021/10/29 14:42:30;;;;;;;1999.90;999.90;;;11.30;94.00;;;;;;5112640;28;20454;-79
2021/10/29 14:44:52;;;;;;;1999.90;999.90;;;11.20;94.40;;;;;;5108180;28;20039;-79
2021/10/29 15:01:03;;;;;;;1999.90;999.90;;;10.50;96.10;;;;;;5116360;28;20092;-81
2021/10/29 15:17:15;;;;;;;1999.90;999.90;;;9.40;99.90;;;;;;5116501;28;20092;-79
2021/10/29 15:46:37;;;;;;;1999.90;999.90;;;7.80;99.90;;;;;;5094416;28;20043;-80
2021/10/29 15:51:41;;;;;;;1999.90;999.90;;;7.50;99.90;;;;;;5095134;28;20024;-81
2021/10/29 15:54:09;;;;;;;1999.90;999.90;;;7.40;99.90;;;;;;5093060;28;20020;-79
2021/10/29 16:02:07;;;;;;;1999.90;999.90;;;7.10;99.90;;;;;;5094126;28;20097;-77
2021/10/29 16:18:14;;;;;;;1999.90;999.90;;;6.20;99.90;;;;;;5095994;28;20027;-83
2021/10/29 16:20:39;;;;;;;1999.90;999.90;;;6.10;99.90;;;;;;5095843;28;20464;-83
2021/10/29 16:23:05;;;;;;;1999.90;999.90;;;6.00;99.90;;;;;;5096510;28;20069;-86
2021/10/29 16:25:34;;;;;;;1999.90;999.90;;;5.90;99.90;;;;;;5094953;28;20094;-83
2021/10/29 16:28:03;;;;;;;1999.90;999.90;;;5.90;99.90;;;;;;5094793;28;20164;-84
2021/10/29 16:30:30;;;;;;;1999.90;999.90;;;5.80;99.90;;;;;;5095099;28;20115;-84
2021/10/29 16:35:24;;;;;;;1999.90;999.90;;;5.70;99.90;;;;;;5095585;28;20077;-88
2021/10/29 16:37:50;;;;;;;1999.90;999.90;;;5.60;99.90;;;;;;5094588;28;20035;-85
2021/10/29 16:40:16;;;;;;;1999.90;999.90;;;5.50;99.90;;;;;;5095904;28;20024;-86
2021/10/29 16:42:42;;;;;;;1999.90;999.90;;;5.40;99.90;;;;;;5096942;28;20081;-83
2021/10/29 16:45:11;;;;;;;1999.90;999.90;;;5.40;99.90;;;;;;5110210;28;20016;-86
2021/10/29 16:47:37;;;;;;;1999.90;999.90;;;5.30;99.90;;;;;;5077636;28;20055;-79
2021/10/29 16:50:06;;;;;;;1999.90;999.90;;;5.30;99.90;;;;;;5075789;28;20484;-79
2021/10/29 16:52:31;;;;;;;1999.90;999.90;;;5.20;99.90;;;;;;5075924;28;20024;-80
2021/10/29 16:54:57;;;;;;;1999.90;999.90;;;5.20;99.90;;;;;;5093904;28;20523;-81
2021/10/29 16:57:23;;;;;;;1999.90;999.90;;;5.10;99.90;;;;;;5075816;28;20024;-78
2021/10/29 16:59:49;;;;;;;1999.90;999.90;;;5.00;99.90;;;;;;5075310;28;20048;-79
2021/10/29 17:02:15;;;;;;;1999.90;999.90;;;4.90;99.90;;;;;;5075505;28;20560;-78
2021/10/29 17:04:41;;;;;;;1999.90;999.90;;;4.90;99.90;;;;;;5075292;28;20016;-79
2021/10/29 17:07:09;;;;;;;1999.90;999.90;;;4.80;99.90;;;;;;5092939;28;20059;-78
2021/10/29 17:09:35;;;;;;;1999.90;999.90;;;4.80;99.90;;;;;;5075408;28;20016;-79
2021/10/29 17:12:01;;;;;;;1999.90;999.90;;;4.70;99.90;;;;;;5093034;28;20502;-80
2021/10/29 17:14:30;;;;;;;1999.90;999.90;;;4.70;99.90;;;;;;5093598;28;20027;-79
2021/10/29 17:16:57;;;;;;;1999.90;999.90;;;4.60;99.90;;;;;;5074835;28;20125;-78
2021/10/29 17:19:22;;;;;;;1999.90;999.90;;;4.60;99.90;;;;;;5074994;28;20024;-77
2021/10/29 17:21:48;;;;;;;1999.90;999.90;;;4.50;99.90;;;;;;5093076;28;20031;-79